Hayfield, Virginia
Current Conditions -  °F | °C
As of 3:55 PM on Thursday 20 Nov 2014 (Local Time) from KOKV Reporting Station
Clear Clear  
Wind Chill: 40°   Ceiling: Unl
Heat Index: 46°   Visibility: 10mi
Dew Point:   Wind: 16mph
Humidity: 17%   Direction: 290°WNW
Pressure: 29.9"   Gusts: 22mph
Location:  39.2345°N, 78.29°W
Report Text: KOKV 202055Z AUTO 29014G19KT 10SM CLR 08/M16 A2990 RMK AO2
Loading
Personal Weather Stations






























Interactive Weather Map New forecast layout! Learn more

10-Day Weather Forecast

Advertisements
Track Severe Weather on mobile